createdAt,value
2019-03-25T00:02:30.281Z,14.20
2019-03-25T00:05:00.446Z,14.10
2019-03-25T00:07:32.174Z,14.10
2019-03-25T00:10:02.294Z,14.20
2019-03-25T00:12:32.491Z,14.10
2019-03-25T00:15:02.714Z,14.20
2019-03-25T00:17:32.874Z,14.30
2019-03-25T00:20:05.215Z,14.30
2019-03-25T00:22:35.278Z,14.40
2019-03-25T00:25:07.988Z,14.40
2019-03-25T00:27:57.818Z,14.20
2019-03-25T00:30:28.427Z,14.20
2019-03-25T00:32:58.493Z,14.20
2019-03-25T00:35:29.747Z,14.20
2019-03-25T00:37:59.815Z,14.20
2019-03-25T00:40:29.952Z,14.20
2019-03-25T00:43:00.091Z,14.10
2019-03-25T00:45:30.288Z,13.90
2019-03-25T00:48:00.422Z,13.70
2019-03-25T00:50:30.620Z,13.70
2019-03-25T00:53:00.839Z,13.60
2019-03-25T00:55:30.982Z,13.60
2019-03-25T00:58:01.114Z,13.60
2019-03-25T01:00:31.273Z,13.50
2019-03-25T01:03:01.462Z,13.50
2019-03-25T01:05:33.554Z,13.50
2019-03-25T01:08:05.223Z,13.40
2019-03-25T01:10:35.439Z,13.40
2019-03-25T01:13:05.500Z,13.30
2019-03-25T01:15:35.754Z,13.30
2019-03-25T01:18:16.432Z,13.20
2019-03-25T01:20:37.774Z,13.10
2019-03-25T01:23:09.633Z,13.00
2019-03-25T01:25:42.306Z,12.80
2019-03-25T01:28:12.371Z,12.80
2019-03-25T01:30:44.124Z,12.70
2019-03-25T01:33:15.415Z,12.70
2019-03-25T01:35:50.572Z,12.70
2019-03-25T01:38:20.682Z,12.40
2019-03-25T01:40:50.834Z,12.50
2019-03-25T01:43:20.909Z,12.50
2019-03-25T01:45:51.154Z,12.60
2019-03-25T01:48:23.246Z,12.50
2019-03-25T01:50:53.777Z,12.40
2019-03-25T01:53:23.924Z,12.20
2019-03-25T01:55:54.207Z,12.10
2019-03-25T01:58:24.559Z,12.10
2019-03-25T02:00:54.659Z,12.10
2019-03-25T02:03:25.083Z,12.00
2019-03-25T02:05:55.878Z,11.90
2019-03-25T02:08:26.255Z,11.80
2019-03-25T02:10:56.390Z,11.80
2019-03-25T02:13:28.073Z,11.60
2019-03-25T02:15:58.146Z,11.30
2019-03-25T02:18:28.401Z,11.30
2019-03-25T02:20:59.038Z,11.30
2019-03-25T02:23:29.059Z,11.40
2019-03-25T02:25:59.142Z,11.50
2019-03-25T02:28:29.285Z,11.60
2019-03-25T02:30:59.430Z,11.70
2019-03-25T02:33:29.527Z,11.70
2019-03-25T02:35:59.649Z,11.50
2019-03-25T02:38:30.006Z,11.50
2019-03-25T02:41:00.083Z,11.40
2019-03-25T02:43:30.662Z,11.40
2019-03-25T02:46:00.757Z,11.40
2019-03-25T02:48:30.904Z,11.50
2019-03-25T02:51:01.128Z,11.50
2019-03-25T02:53:32.657Z,11.50
2019-03-25T02:56:03.015Z,11.40
2019-03-25T02:58:33.109Z,11.40
2019-03-25T03:01:04.440Z,11.40
2019-03-25T03:03:34.660Z,11.40
2019-03-25T03:06:06.343Z,11.40
2019-03-25T03:08:37.991Z,11.40
2019-03-25T03:11:09.530Z,11.40
2019-03-25T03:13:41.144Z,11.30
2019-03-25T03:16:11.466Z,11.30
2019-03-25T03:18:42.714Z,11.30
2019-03-25T03:21:12.782Z,11.30
2019-03-25T03:23:42.960Z,11.20
2019-03-25T03:26:12.933Z,11.10
2019-03-25T03:28:43.063Z,11.00
2019-03-25T03:31:13.329Z,11.00
2019-03-25T03:33:45.711Z,11.00
2019-03-25T03:36:16.511Z,11.00
2019-03-25T03:38:46.769Z,10.90
2019-03-25T03:41:18.522Z,10.90
2019-03-25T03:43:48.656Z,10.90
2019-03-25T03:46:18.731Z,10.90
2019-03-25T03:48:48.972Z,11.00
2019-03-25T03:51:19.270Z,10.90
2019-03-25T03:53:49.526Z,10.90
2019-03-25T03:56:21.403Z,10.80
2019-03-25T03:58:54.132Z,10.90
2019-03-25T04:01:24.220Z,10.90
2019-03-25T04:03:54.295Z,10.90
2019-03-25T04:06:24.467Z,10.90
2019-03-25T04:08:54.659Z,10.80
2019-03-25T04:11:24.749Z,10.80
2019-03-25T04:13:54.875Z,10.80
2019-03-25T04:16:25.062Z,10.90
2019-03-25T04:18:55.178Z,10.80
2019-03-25T04:24:14.245Z,10.40
2019-03-25T04:26:44.457Z,10.20
2019-03-25T04:29:14.507Z,10.40
2019-03-25T04:31:48.632Z,10.30
2019-03-25T04:34:18.703Z,10.50
2019-03-25T04:36:49.354Z,10.60
2019-03-25T04:39:19.426Z,10.60
2019-03-25T04:41:50.560Z,10.60
2019-03-25T04:44:23.477Z,10.50
2019-03-25T04:46:55.146Z,10.40
2019-03-25T04:49:26.767Z,10.40
2019-03-25T04:51:56.978Z,10.40
2019-03-25T04:54:27.322Z,10.40
2019-03-25T04:56:57.391Z,10.50
2019-03-25T04:59:27.517Z,10.50
2019-03-25T05:01:58.654Z,10.60
2019-03-25T05:04:28.679Z,10.50
2019-03-25T05:06:59.215Z,10.50
2019-03-25T05:09:31.274Z,10.50
2019-03-25T05:18:56.907Z,10.50
2019-03-25T05:21:31.362Z,10.60
2019-03-25T05:24:01.363Z,10.60
2019-03-25T05:26:32.726Z,10.60
2019-03-25T05:29:02.894Z,10.60
2019-03-25T05:31:33.457Z,10.70
2019-03-25T05:34:03.649Z,10.70
2019-03-25T05:36:33.886Z,10.70
2019-03-25T05:39:07.567Z,10.70
2019-03-25T05:41:37.910Z,10.70
2019-03-25T05:44:09.790Z,10.70
2019-03-25T05:46:43.597Z,10.60
2019-03-25T05:49:13.736Z,10.70
2019-03-25T05:51:43.970Z,10.60
2019-03-25T05:54:14.256Z,10.70
2019-03-25T05:56:44.715Z,10.60
2019-03-25T05:59:14.961Z,10.60
2019-03-25T06:01:46.660Z,10.80
2019-03-25T06:04:16.859Z,10.90
2019-03-25T06:06:47.258Z,11.10
2019-03-25T06:09:17.365Z,11.10
2019-03-25T06:11:47.531Z,11.10
2019-03-25T06:14:17.715Z,11.20
2019-03-25T06:16:47.853Z,11.30
2019-03-25T06:19:17.982Z,11.50
2019-03-25T06:21:49.589Z,11.50
2019-03-25T06:24:19.649Z,11.60
2019-03-25T06:26:50.095Z,11.70
2019-03-25T06:29:20.277Z,11.80
2019-03-25T06:31:50.431Z,11.90
2019-03-25T06:34:21.103Z,12.00
2019-03-25T06:36:51.398Z,12.00
2019-03-25T06:39:22.693Z,12.10
2019-03-25T06:41:54.313Z,12.20
2019-03-25T06:44:24.483Z,12.20
2019-03-25T06:46:55.702Z,12.30
2019-03-25T06:49:25.866Z,12.40
2019-03-25T06:51:56.161Z,12.50
2019-03-25T06:54:26.394Z,12.70
2019-03-25T06:56:58.220Z,12.60
2019-03-25T06:59:28.387Z,12.70
2019-03-25T07:01:58.554Z,12.90
2019-03-25T07:04:31.442Z,13.00
2019-03-25T07:07:01.522Z,13.00
2019-03-25T07:09:32.302Z,13.20
2019-03-25T07:12:02.501Z,13.30
2019-03-25T07:14:35.023Z,13.50
2019-03-25T07:17:05.252Z,13.60
2019-03-25T07:19:35.480Z,13.70
2019-03-25T07:22:05.753Z,13.90
2019-03-25T07:24:37.951Z,14.00
2019-03-25T07:27:08.074Z,14.00
2019-03-25T07:29:39.724Z,14.10
2019-03-25T07:32:09.939Z,14.20
2019-03-25T07:34:41.319Z,14.20
2019-03-25T07:37:11.882Z,14.30
2019-03-25T07:39:41.938Z,14.50
2019-03-25T07:42:12.149Z,14.60
2019-03-25T07:44:42.286Z,14.70
2019-03-25T07:47:12.502Z,14.70
2019-03-25T07:49:42.709Z,14.80
2019-03-25T07:52:13.068Z,14.90
2019-03-25T07:54:43.337Z,15.00
2019-03-25T07:57:13.653Z,15.10
2019-03-25T07:59:43.672Z,15.20
2019-03-25T08:02:15.221Z,15.30
2019-03-25T08:04:45.586Z,15.40
2019-03-25T08:07:15.787Z,15.40
2019-03-25T08:09:46.039Z,15.50
2019-03-25T08:12:16.214Z,15.60
2019-03-25T08:14:50.296Z,15.80
2019-03-25T08:17:20.511Z,15.80
2019-03-25T08:19:50.653Z,16.00
2019-03-25T08:22:20.733Z,16.00
2019-03-25T08:24:52.280Z,16.10
2019-03-25T08:27:22.798Z,16.20
2019-03-25T08:29:54.048Z,16.30
2019-03-25T08:32:24.138Z,16.50
2019-03-25T08:34:55.936Z,16.50
2019-03-25T08:37:26.070Z,16.60
2019-03-25T08:39:56.290Z,16.60
2019-03-25T08:42:26.432Z,16.80
2019-03-25T08:44:56.596Z,16.90
2019-03-25T08:47:26.723Z,17.10
2019-03-25T08:49:56.955Z,17.10
2019-03-25T08:52:26.953Z,17.30
2019-03-25T08:54:59.289Z,17.40
2019-03-25T08:57:29.309Z,17.50
2019-03-25T08:59:59.442Z,17.70
2019-03-25T09:02:29.577Z,17.80
2019-03-25T09:04:59.965Z,17.90
2019-03-25T09:07:30.110Z,18.00
2019-03-25T09:10:00.352Z,18.10
2019-03-25T09:12:30.483Z,18.30
2019-03-25T09:15:00.690Z,18.40
2019-03-25T09:17:30.845Z,18.30
2019-03-25T09:20:03.803Z,18.40
2019-03-25T09:22:33.992Z,18.60
2019-03-25T09:25:08.925Z,18.80
2019-03-25T09:27:39.335Z,18.90
2019-03-25T09:30:13.856Z,18.90
2019-03-25T09:32:43.987Z,19.00
2019-03-25T09:35:14.860Z,19.10
2019-03-25T09:37:45.075Z,19.10
2019-03-25T09:40:15.594Z,19.30
2019-03-25T09:42:46.136Z,19.40
2019-03-25T09:45:16.347Z,19.50
2019-03-25T09:47:48.315Z,19.50
2019-03-25T09:50:18.793Z,19.60
2019-03-25T09:52:48.886Z,19.60
2019-03-25T09:55:18.973Z,19.80
2019-03-25T09:57:51.793Z,19.80
2019-03-25T10:00:32.567Z,20.00
2019-03-25T10:03:04.277Z,19.90
2019-03-25T10:05:34.596Z,20.10
2019-03-25T10:08:10.271Z,20.20
2019-03-25T10:10:41.021Z,20.40
2019-03-25T10:13:14.265Z,20.30
2019-03-25T10:15:43.706Z,20.40
2019-03-25T10:18:13.742Z,20.50
2019-03-25T10:21:06.486Z,20.70
2019-03-25T10:23:36.914Z,20.80
2019-03-25T10:28:58.051Z,20.90
2019-03-25T10:31:28.572Z,20.70
2019-03-25T10:33:58.998Z,20.60
2019-03-25T10:36:31.603Z,20.80
2019-03-25T10:39:01.127Z,20.90
2019-03-25T10:41:32.459Z,21.10
2019-03-25T10:44:04.411Z,21.20
2019-03-25T10:46:34.627Z,21.50
2019-03-25T10:49:04.729Z,21.60
2019-03-25T10:51:34.871Z,21.50
2019-03-25T10:54:05.108Z,21.60
2019-03-25T10:56:35.251Z,21.60
2019-03-25T10:59:05.419Z,21.90
2019-03-25T11:01:35.869Z,22.10
2019-03-25T11:04:06.023Z,22.20
2019-03-25T11:06:37.702Z,22.60
2019-03-25T11:09:08.048Z,22.90
2019-03-25T11:11:38.930Z,23.30
2019-03-25T11:14:13.930Z,23.70
2019-03-25T11:16:47.044Z,23.90
2019-03-25T11:19:17.314Z,23.60
2019-03-25T11:21:51.357Z,23.70
2019-03-25T11:24:24.486Z,24.10
2019-03-25T11:26:54.716Z,24.60
2019-03-25T11:29:24.850Z,24.80
2019-03-25T11:31:56.390Z,24.70
2019-03-25T11:34:26.615Z,24.30
2019-03-25T11:36:58.380Z,24.30
2019-03-25T11:39:28.533Z,24.60
2019-03-25T11:45:01.165Z,24.90
2019-03-25T11:47:34.866Z,24.40
2019-03-25T11:50:15.456Z,24.30
2019-03-25T11:55:41.764Z,25.30
2019-03-25T11:58:12.199Z,25.50
2019-03-25T12:00:42.679Z,25.60
2019-03-25T12:03:12.987Z,26.00
2019-03-25T12:05:44.661Z,26.00
2019-03-25T12:08:14.775Z,26.20
2019-03-25T12:10:44.931Z,26.30
2019-03-25T12:13:16.845Z,26.80
2019-03-25T12:15:47.077Z,27.40
2019-03-25T12:18:19.035Z,27.30
2019-03-25T12:20:49.150Z,27.40
2019-03-25T12:23:26.323Z,27.40
2019-03-25T12:25:52.522Z,27.70
2019-03-25T12:31:17.653Z,28.20
2019-03-25T12:33:47.955Z,28.20
2019-03-25T12:36:18.294Z,28.70
2019-03-25T12:38:48.724Z,28.90
2019-03-25T12:41:19.034Z,29.20
2019-03-25T12:43:49.499Z,29.30
2019-03-25T12:46:19.839Z,29.20
2019-03-25T12:48:50.619Z,29.20
2019-03-25T12:51:21.930Z,29.50
2019-03-25T12:53:52.248Z,29.70
2019-03-25T12:56:22.578Z,28.80
2019-03-25T12:58:53.912Z,28.60
2019-03-25T13:01:26.283Z,28.90
2019-03-25T13:03:56.611Z,29.10
2019-03-25T13:06:26.931Z,28.90
2019-03-25T13:08:57.272Z,29.00
2019-03-25T13:11:27.680Z,28.90
2019-03-25T13:14:00.841Z,28.90
2019-03-25T13:16:31.269Z,28.50
2019-03-25T13:19:01.979Z,28.00
2019-03-25T13:21:33.427Z,26.80
2019-03-25T13:24:03.917Z,26.30
2019-03-25T13:26:36.327Z,26.50
2019-03-25T13:29:06.599Z,27.00
2019-03-25T13:31:36.839Z,27.00
2019-03-25T13:34:08.229Z,27.00
2019-03-25T13:36:38.505Z,26.80
2019-03-25T13:39:09.973Z,26.50
2019-03-25T13:41:40.291Z,26.50
2019-03-25T13:44:10.617Z,26.40
2019-03-25T13:46:42.622Z,26.50
2019-03-25T13:49:12.954Z,26.20
2019-03-25T13:51:43.195Z,25.60
2019-03-25T13:54:13.587Z,25.30
2019-03-25T13:56:43.926Z,25.50
2019-03-25T13:59:14.168Z,25.80
2019-03-25T14:01:44.510Z,25.70
2019-03-25T14:04:14.749Z,25.70
2019-03-25T14:06:45.115Z,25.70
2019-03-25T14:09:24.511Z,25.80
2019-03-25T14:11:54.912Z,25.80
2019-03-25T14:14:25.164Z,25.60
2019-03-25T14:16:55.512Z,25.80
2019-03-25T14:19:25.814Z,25.80
2019-03-25T14:21:56.043Z,25.50
2019-03-25T14:24:26.309Z,25.30
2019-03-25T14:26:58.145Z,25.00
2019-03-25T14:29:30.707Z,24.90
2019-03-25T14:32:01.099Z,24.80
2019-03-25T14:34:31.510Z,24.80
2019-03-25T14:37:01.850Z,24.80
2019-03-25T14:39:33.301Z,24.80
2019-03-25T14:42:04.386Z,24.40
2019-03-25T14:44:34.730Z,24.20
2019-03-25T14:47:13.492Z,24.10
2019-03-25T14:49:43.883Z,24.10
2019-03-25T14:52:14.165Z,24.20
2019-03-25T14:54:45.037Z,24.10
2019-03-25T14:57:19.427Z,24.20
2019-03-25T14:59:51.010Z,24.10
2019-03-25T15:02:21.346Z,24.20
2019-03-25T15:04:51.690Z,24.20
2019-03-25T15:07:22.027Z,24.20
2019-03-25T15:09:52.821Z,24.20
2019-03-25T15:12:24.823Z,24.10
2019-03-25T15:17:45.859Z,24.00
2019-03-25T15:20:16.703Z,24.10
2019-03-25T15:22:47.051Z,24.00
2019-03-25T15:25:17.437Z,23.90
2019-03-25T15:27:48.804Z,23.90
2019-03-25T15:30:19.435Z,23.90
2019-03-25T15:32:49.733Z,23.70
2019-03-25T15:35:20.039Z,23.70
2019-03-25T15:37:50.355Z,23.70
2019-03-25T15:40:20.760Z,23.80
2019-03-25T15:42:51.287Z,23.80
2019-03-25T15:45:22.008Z,23.70
2019-03-25T15:47:52.347Z,23.60
2019-03-25T15:50:22.680Z,23.70
2019-03-25T15:52:52.990Z,23.60
2019-03-25T15:55:23.316Z,23.60
2019-03-25T15:57:55.133Z,23.50
2019-03-25T16:00:26.932Z,23.40
2019-03-25T16:03:17.696Z,23.40
2019-03-25T16:06:06.070Z,23.20
2019-03-25T16:08:36.364Z,23.00
2019-03-25T16:11:06.687Z,23.00
2019-03-25T16:13:37.068Z,23.00
2019-03-25T16:16:08.037Z,23.10
2019-03-25T16:18:40.449Z,23.10
2019-03-25T16:21:10.943Z,23.10
2019-03-25T16:23:41.678Z,23.10
2019-03-25T16:26:15.251Z,23.20
2019-03-25T16:28:45.589Z,23.20
2019-03-25T16:31:17.833Z,23.20
2019-03-25T16:33:48.153Z,23.20
2019-03-25T16:36:18.526Z,23.10
2019-03-25T16:38:48.855Z,23.10
2019-03-25T16:41:19.164Z,23.10
2019-03-25T16:43:49.506Z,23.10
2019-03-25T16:46:20.122Z,23.00
2019-03-25T16:48:50.436Z,22.90
2019-03-25T16:51:21.137Z,22.80
2019-03-25T16:53:51.468Z,22.80
2019-03-25T16:56:21.837Z,22.80
2019-03-25T16:58:52.508Z,22.70
2019-03-25T17:01:22.819Z,22.60
2019-03-25T17:03:53.180Z,22.60
2019-03-25T17:06:23.511Z,22.60
2019-03-25T17:08:53.886Z,22.60
2019-03-25T17:11:24.641Z,22.50
2019-03-25T17:13:54.962Z,22.40
2019-03-25T17:16:25.213Z,22.30
2019-03-25T17:18:55.534Z,22.30
2019-03-25T17:21:27.084Z,22.30
2019-03-25T17:23:57.495Z,22.10
2019-03-25T17:26:29.371Z,22.10
2019-03-25T17:29:01.267Z,22.10
2019-03-25T17:31:33.218Z,22.10
2019-03-25T17:34:03.483Z,22.10
2019-03-25T17:36:35.168Z,22.10
2019-03-25T17:39:08.390Z,22.10
2019-03-25T17:41:38.751Z,22.00
2019-03-25T17:44:09.152Z,22.00
2019-03-25T17:46:39.435Z,21.90
2019-03-25T17:49:09.823Z,21.80
2019-03-25T17:51:40.137Z,21.70
2019-03-25T17:54:10.475Z,21.70
2019-03-25T17:56:41.153Z,21.70
2019-03-25T17:59:11.495Z,21.50
2019-03-25T18:01:41.908Z,21.40
2019-03-25T18:04:12.327Z,21.30
2019-03-25T18:07:50.936Z,21.20
2019-03-25T18:10:21.163Z,21.20
2019-03-25T18:12:51.423Z,21.20
2019-03-25T18:15:21.739Z,21.20
2019-03-25T18:17:51.834Z,21.10
2019-03-25T18:20:22.934Z,21.00
2019-03-25T18:22:53.103Z,20.90
2019-03-25T18:25:23.332Z,20.80
2019-03-25T18:27:53.659Z,20.70
2019-03-25T18:30:34.426Z,20.60
2019-03-25T18:33:04.906Z,20.60
2019-03-25T18:35:42.243Z,20.60
2019-03-25T18:38:12.551Z,20.40
2019-03-25T18:40:42.799Z,20.50
2019-03-25T18:43:12.954Z,20.40
2019-03-25T18:45:43.349Z,20.40
2019-03-25T18:48:13.542Z,20.30
2019-03-25T18:50:44.721Z,20.20
2019-03-25T18:53:14.934Z,20.20
2019-03-25T18:55:45.067Z,20.20
2019-03-25T18:58:16.532Z,20.30
2019-03-25T19:00:48.281Z,20.10
2019-03-25T19:03:20.423Z,20.00
2019-03-25T19:05:50.857Z,19.90
2019-03-25T19:08:21.427Z,19.90
2019-03-25T19:10:51.847Z,19.90
2019-03-25T19:13:22.991Z,19.90
2019-03-25T19:15:55.062Z,19.80
2019-03-25T19:18:29.069Z,19.80
2019-03-25T19:21:00.226Z,19.80
2019-03-25T19:23:31.810Z,19.80
2019-03-25T19:26:02.000Z,19.80
2019-03-25T19:28:32.308Z,19.80
2019-03-25T19:38:10.314Z,19.50
2019-03-25T19:40:40.667Z,19.50
2019-03-25T19:43:11.720Z,19.50
2019-03-25T19:45:42.005Z,19.50
2019-03-25T19:51:01.491Z,19.30
2019-03-25T19:53:33.557Z,19.30
2019-03-25T19:56:03.845Z,19.10
2019-03-25T19:58:33.855Z,19.10
2019-03-25T20:01:04.112Z,18.90
2019-03-25T20:03:34.247Z,18.80
2019-03-25T20:06:04.609Z,18.70
2019-03-25T20:08:35.125Z,18.70
2019-03-25T20:11:05.371Z,18.70
2019-03-25T20:13:37.765Z,18.70
2019-03-25T20:16:07.817Z,18.60
2019-03-25T20:18:39.780Z,18.40
2019-03-25T20:21:10.233Z,18.30
2019-03-25T20:23:41.908Z,18.20
2019-03-25T20:26:12.112Z,18.10
2019-03-25T20:28:42.424Z,18.10
2019-03-25T20:31:12.678Z,18.10
2019-03-25T20:33:45.984Z,18.00
2019-03-25T20:36:16.136Z,18.10
2019-03-25T20:38:49.427Z,18.10
2019-03-25T20:41:18.390Z,18.00
2019-03-25T20:43:49.140Z,18.00
2019-03-25T20:46:19.339Z,18.00
2019-03-25T20:48:49.388Z,18.00
2019-03-25T20:51:19.790Z,17.90
2019-03-25T20:53:49.905Z,17.80
2019-03-25T20:56:21.210Z,17.80
2019-03-25T20:58:51.444Z,17.70
2019-03-25T21:01:21.482Z,17.70
2019-03-25T21:03:53.279Z,17.70
2019-03-25T21:06:23.597Z,17.70
2019-03-25T21:08:54.232Z,17.70
2019-03-25T21:11:26.108Z,17.70
2019-03-25T21:13:57.344Z,17.60
2019-03-25T21:16:44.446Z,17.50
2019-03-25T21:19:16.637Z,17.50
2019-03-25T21:21:47.182Z,17.60
2019-03-25T21:24:17.782Z,17.40
2019-03-25T21:26:48.047Z,17.20
2019-03-25T21:29:18.381Z,17.00
2019-03-25T21:31:48.461Z,16.80
2019-03-25T21:34:22.553Z,16.60
2019-03-25T21:36:52.750Z,16.50
2019-03-25T21:39:24.260Z,16.50
2019-03-25T21:41:55.728Z,16.40
2019-03-25T21:44:26.065Z,16.30
2019-03-25T21:46:57.498Z,16.30
2019-03-25T21:49:29.185Z,16.20
2019-03-25T21:52:04.567Z,16.20
2019-03-25T21:54:36.418Z,16.30
2019-03-25T21:57:08.514Z,16.30
2019-03-25T21:59:43.459Z,16.30
2019-03-25T22:02:17.906Z,16.30
2019-03-25T22:04:48.079Z,16.20
2019-03-25T22:10:13.717Z,16.20
2019-03-25T22:12:50.358Z,16.00
2019-03-25T22:15:23.202Z,16.00
2019-03-25T22:17:53.488Z,15.90
2019-03-25T22:20:24.998Z,16.00
2019-03-25T22:22:55.178Z,15.90
2019-03-25T22:25:28.027Z,15.60
2019-03-25T22:28:03.381Z,15.60
2019-03-25T22:30:35.353Z,15.60
2019-03-25T22:33:05.492Z,15.40
2019-03-25T22:35:37.267Z,15.50
2019-03-25T22:38:17.618Z,15.50
2019-03-25T22:40:47.647Z,15.50
2019-03-25T22:43:19.323Z,15.60
2019-03-25T22:45:52.395Z,15.70
2019-03-25T22:48:22.562Z,15.70
2019-03-25T22:50:52.747Z,15.60
2019-03-25T22:53:26.779Z,15.50
2019-03-25T22:55:57.900Z,15.30
2019-03-25T22:58:29.526Z,15.10
2019-03-25T23:01:05.930Z,14.90
2019-03-25T23:03:40.119Z,14.70
2019-03-25T23:06:10.335Z,14.80
2019-03-25T23:08:40.589Z,14.80
2019-03-25T23:11:10.593Z,14.80
2019-03-25T23:13:41.150Z,14.60
2019-03-25T23:16:11.168Z,14.70
2019-03-25T23:18:44.256Z,14.60
2019-03-25T23:24:06.165Z,14.50
2019-03-25T23:26:37.846Z,14.50
2019-03-25T23:29:09.457Z,14.50
2019-03-25T23:31:39.586Z,14.40
2019-03-25T23:34:11.470Z,14.30
2019-03-25T23:36:42.912Z,14.20
2019-03-25T23:39:13.076Z,13.80
2019-03-25T23:41:45.145Z,13.10
2019-03-25T23:44:16.400Z,12.60
2019-03-25T23:46:47.620Z,12.50
2019-03-25T23:49:17.735Z,12.00
2019-03-25T23:51:47.798Z,11.50
2019-03-25T23:54:17.783Z,11.20
2019-03-25T23:56:47.986Z,11.10
2019-03-25T23:59:18.106Z,11.00
